Terminal Aerodrome Forecast
Issued by NWS

Home | Current Version | Previous Version | Text Only | Print | Product List | Glossary On
Versions: 1 2 3 4 5 6 7 8 9 10 11 12 13 14 15 16 17 18 19 20 21 22
000
FTUS42 KTAE 201731
TAFDHN
TAF
KDHN 201731Z 2018/2118 22010KT P6SM BKN025
     FM202000 21008KT 6SM -SHRA BKN030
     FM210200 19006KT P6SM OVC010
     FM210500 18006KT 3SM -RA BR OVC005
     FM211000 18006KT 1SM RA BR OVC003
     FM211500 19012G20KT 6SM -RA OVC010=

USA.gov is the U.S. government's official web portal to all federal, state and local government web resources and services.